createdAt,value
2023-01-12T00:03:03.084Z,14.10
2023-01-12T00:08:06.398Z,13.70
2023-01-12T00:13:09.822Z,12.80
2023-01-12T00:18:13.327Z,14.00
2023-01-12T00:23:16.737Z,12.70
2023-01-12T00:28:20.395Z,12.30
2023-01-12T00:33:23.875Z,15.70
2023-01-12T00:38:28.427Z,15.70
2023-01-12T00:43:50.564Z,14.40
2023-01-12T00:48:54.508Z,14.10
2023-01-12T00:53:57.905Z,14.80
2023-01-12T00:59:01.548Z,16.60
2023-01-12T01:04:05.547Z,16.50
2023-01-12T01:09:09.369Z,16.10
2023-01-12T01:14:13.095Z,15.40
2023-01-12T01:19:17.321Z,18.20
2023-01-12T01:24:20.636Z,15.70
2023-01-12T01:29:24.554Z,16.20
2023-01-12T01:34:28.176Z,14.20
2023-01-12T01:39:31.609Z,16.50
2023-01-12T01:44:43.808Z,15.30
2023-01-12T01:49:51.325Z,16.40
2023-01-12T01:54:57.290Z,15.80
2023-01-12T02:00:04.109Z,14.10
2023-01-12T02:05:08.111Z,17.80
2023-01-12T02:10:11.631Z,17.20
2023-01-12T02:15:34.327Z,14.80
2023-01-12T02:21:05.249Z,16.20
2023-01-12T02:26:11.734Z,16.50
2023-01-12T02:32:03.080Z,17.70
2023-01-12T02:37:15.407Z,16.30
2023-01-12T02:42:40.625Z,15.70
2023-01-12T02:47:54.280Z,14.20
2023-01-12T02:53:06.592Z,16.80
2023-01-12T02:58:13.608Z,15.90
2023-01-12T03:03:18.917Z,16.80
2023-01-12T03:08:27.904Z,16.90
2023-01-12T03:13:35.304Z,14.80
2023-01-12T03:18:53.967Z,17.20
2023-01-12T03:24:11.527Z,16.00
2023-01-12T03:29:45.647Z,13.00
2023-01-12T03:34:49.581Z,16.40
2023-01-12T03:40:02.813Z,19.80
2023-01-12T03:45:36.552Z,18.00
2023-01-12T03:50:51.324Z,17.50
2023-01-12T04:01:00.152Z,15.90
2023-01-12T04:06:04.022Z,14.90
2023-01-12T04:11:27.817Z,14.50
2023-01-12T04:16:31.125Z,15.30
2023-01-12T04:21:53.584Z,14.90
2023-01-12T04:26:56.991Z,14.80
2023-01-12T04:32:00.688Z,12.70
2023-01-12T04:37:04.332Z,13.00
2023-01-12T04:42:27.820Z,13.30
2023-01-12T04:47:33.456Z,9.20
2023-01-12T04:52:38.014Z,11.50
2023-01-12T04:57:41.331Z,11.50
2023-01-12T05:02:44.747Z,11.30
2023-01-12T05:08:06.791Z,10.40
2023-01-12T05:13:10.305Z,11.70
2023-01-12T05:18:14.027Z,8.80
2023-01-12T05:23:17.341Z,10.70
2023-01-12T05:28:20.859Z,10.40
2023-01-12T05:33:25.391Z,7.50
2023-01-12T05:38:29.752Z,10.40
2023-01-12T05:48:56.170Z,11.00
2023-01-12T05:53:59.636Z,9.80
2023-01-12T05:59:04.991Z,9.80
2023-01-12T06:04:11.263Z,11.10
2023-01-12T06:09:14.681Z,10.10
2023-01-12T06:14:18.105Z,10.70
2023-01-12T06:19:21.613Z,9.80
2023-01-12T06:24:25.436Z,11.90
2023-01-12T06:29:28.742Z,9.60
2023-01-12T06:34:35.227Z,9.70
2023-01-12T06:39:38.641Z,10.70
2023-01-12T06:44:42.059Z,11.70
2023-01-12T06:49:45.467Z,8.40
2023-01-12T06:54:48.985Z,11.00
2023-01-12T06:59:52.706Z,10.50
2023-01-12T07:04:56.112Z,10.90
2023-01-12T07:09:59.530Z,10.70
2023-01-12T07:15:04.176Z,10.20
2023-01-12T07:20:08.419Z,9.40
2023-01-12T07:25:11.714Z,9.50
2023-01-12T07:30:15.225Z,9.60
2023-01-12T07:35:19.053Z,8.30
2023-01-12T07:40:22.670Z,9.10
2023-01-12T07:45:26.495Z,9.40
2023-01-12T07:50:30.120Z,10.40
2023-01-12T07:55:33.627Z,8.40
2023-01-12T08:00:37.959Z,11.60
2023-01-12T08:05:41.856Z,11.50
2023-01-12T08:10:47.662Z,11.30
2023-01-12T08:15:52.010Z,12.00
2023-01-12T08:21:00.118Z,10.00
2023-01-12T08:26:07.729Z,10.90
2023-01-12T08:31:14.208Z,10.70
2023-01-12T08:36:18.981Z,9.50
2023-01-12T08:41:34.762Z,9.40
2023-01-12T08:46:40.243Z,8.20
2023-01-12T08:51:44.449Z,7.60
2023-01-12T08:56:49.509Z,7.50
2023-01-12T09:01:53.004Z,6.80
2023-01-12T09:06:58.637Z,7.50
2023-01-12T09:12:03.742Z,7.10
2023-01-12T09:17:08.093Z,7.80
2023-01-12T09:27:15.818Z,5.30
2023-01-12T09:32:22.945Z,6.20
2023-01-12T09:37:29.504Z,5.80
2023-01-12T09:42:51.451Z,5.50
2023-01-12T09:47:57.749Z,6.40
2023-01-12T09:53:11.080Z,5.70
2023-01-12T09:58:23.750Z,6.10
2023-01-12T10:03:35.904Z,6.00
2023-01-12T10:09:01.266Z,6.40
2023-01-12T10:14:23.340Z,5.90
2023-01-12T10:19:39.011Z,5.70
2023-01-12T10:24:43.548Z,6.60
2023-01-12T10:29:48.605Z,5.00
2023-01-12T10:34:52.887Z,5.30
2023-01-12T10:45:13.627Z,5.20
2023-01-12T10:50:34.067Z,4.60
2023-01-12T10:55:40.474Z,5.00
2023-01-12T11:00:48.959Z,4.50
2023-01-12T11:05:52.426Z,4.50
2023-01-12T11:10:55.733Z,3.80
2023-01-12T11:16:11.889Z,4.10
2023-01-12T11:21:20.280Z,4.30
2023-01-12T11:26:33.843Z,4.10
2023-01-12T11:31:42.782Z,4.60
2023-01-12T11:37:06.154Z,5.30
2023-01-12T11:42:40.185Z,8.40
2023-01-12T11:47:49.818Z,5.50
2023-01-12T11:52:55.656Z,4.30
2023-01-12T11:58:25.443Z,5.20
2023-01-12T12:03:31.842Z,4.60
2023-01-12T12:08:57.563Z,5.40
2023-01-12T12:14:00.873Z,4.00
2023-01-12T12:19:23.646Z,6.60
2023-01-12T12:24:56.134Z,4.40
2023-01-12T12:30:11.427Z,4.00
2023-01-12T12:35:45.878Z,4.50
2023-01-12T12:41:26.964Z,3.80
2023-01-12T12:46:56.797Z,3.80
2023-01-12T12:52:01.096Z,4.20
2023-01-12T13:02:38.744Z,3.30
2023-01-12T13:07:45.691Z,4.30
2023-01-12T13:13:01.522Z,4.60
2023-01-12T13:18:06.236Z,4.70
2023-01-12T13:23:49.265Z,4.10
2023-01-12T13:29:24.009Z,3.70
2023-01-12T13:39:52.757Z,3.60
2023-01-12T13:44:56.232Z,4.00
2023-01-12T13:50:01.748Z,3.60
2023-01-12T13:55:19.724Z,4.80
2023-01-12T14:00:24.208Z,4.60
2023-01-12T14:05:51.087Z,4.20
2023-01-12T14:11:18.267Z,4.20
2023-01-12T14:16:41.840Z,3.90
2023-01-12T14:22:05.224Z,3.70
2023-01-12T14:27:27.554Z,4.60
2023-01-12T14:32:31.715Z,3.60
2023-01-12T14:37:35.856Z,4.00
2023-01-12T14:42:57.659Z,3.70
2023-01-12T14:48:20.885Z,4.10
2023-01-12T14:53:42.010Z,3.80
2023-01-12T14:58:46.941Z,4.50
2023-01-12T15:03:50.972Z,3.50
2023-01-12T15:09:01.994Z,3.90
2023-01-12T15:14:06.900Z,3.30
2023-01-12T15:19:29.775Z,3.90
2023-01-12T15:24:54.606Z,4.10
2023-01-12T15:29:58.413Z,4.30
2023-01-12T15:35:02.496Z,3.60
2023-01-12T15:40:06.678Z,4.40
2023-01-12T15:45:29.357Z,4.40
2023-01-12T15:50:34.541Z,4.70
2023-01-12T15:55:39.703Z,4.90
2023-01-12T16:00:45.093Z,3.80
2023-01-12T16:05:48.519Z,3.80
2023-01-12T16:11:12.316Z,3.80
2023-01-12T16:16:17.173Z,4.00
2023-01-12T16:21:23.095Z,3.90
2023-01-12T16:26:28.180Z,3.50
2023-01-12T16:31:32.134Z,4.40
2023-01-12T16:36:35.727Z,3.90
2023-01-12T16:41:39.033Z,3.80
2023-01-12T16:46:43.169Z,4.20
2023-01-12T16:51:46.473Z,4.00
2023-01-12T16:56:49.995Z,2.50
2023-01-12T17:01:53.521Z,3.60
2023-01-12T17:06:57.226Z,3.30
2023-01-12T17:12:00.750Z,3.50
2023-01-12T17:17:07.876Z,3.40
2023-01-12T17:22:12.069Z,4.00
2023-01-12T17:27:16.216Z,3.30
2023-01-12T17:32:19.615Z,2.80
2023-01-12T17:37:23.041Z,3.60
2023-01-12T17:42:45.280Z,3.50
2023-01-12T17:47:48.694Z,2.80
2023-01-12T17:52:52.418Z,3.30
2023-01-12T17:57:55.829Z,3.30
2023-01-12T18:03:00.483Z,3.80
2023-01-12T18:08:03.984Z,3.00
2023-01-12T18:13:07.399Z,3.20
2023-01-12T18:18:10.909Z,3.00
2023-01-12T18:23:14.870Z,2.50
2023-01-12T18:28:18.362Z,3.10
2023-01-12T18:33:21.769Z,3.10
2023-01-12T18:38:27.259Z,3.20
2023-01-12T18:43:30.645Z,3.50
2023-01-12T18:48:34.467Z,3.30
2023-01-12T18:53:38.778Z,3.40
2023-01-12T18:58:43.545Z,3.10
2023-01-12T19:03:47.097Z,3.70
2023-01-12T19:09:10.139Z,3.80
2023-01-12T19:14:32.388Z,3.20
2023-01-12T19:19:36.532Z,4.10
2023-01-12T19:24:58.889Z,4.30
2023-01-12T19:30:02.600Z,4.10
2023-01-12T19:35:11.272Z,4.20
2023-01-12T19:40:23.655Z,3.70
2023-01-12T19:45:27.074Z,4.20
2023-01-12T19:50:30.486Z,3.30
2023-01-12T19:55:34.413Z,3.40
2023-01-12T20:00:43.658Z,3.00
2023-01-12T20:05:51.075Z,3.60
2023-01-12T20:10:59.081Z,4.30
2023-01-12T20:16:07.070Z,3.90
2023-01-12T20:21:12.636Z,4.70
2023-01-12T20:26:16.185Z,3.50
2023-01-12T20:31:21.047Z,3.90
2023-01-12T20:36:25.069Z,3.40
2023-01-12T20:41:28.464Z,4.00
2023-01-12T20:46:32.410Z,3.50
2023-01-12T20:51:35.857Z,3.50
2023-01-12T20:56:39.432Z,4.60
2023-01-12T21:01:43.541Z,3.40
2023-01-12T21:06:47.184Z,3.40
2023-01-12T21:11:51.515Z,3.70
2023-01-12T21:16:54.823Z,3.20
2023-01-12T21:21:58.237Z,3.30
2023-01-12T21:27:01.751Z,4.30
2023-01-12T21:32:05.594Z,3.60
2023-01-12T21:37:08.988Z,3.70
2023-01-12T21:42:31.140Z,3.70
2023-01-12T21:47:34.557Z,3.50
2023-01-12T21:52:38.167Z,4.00
2023-01-12T21:57:44.867Z,3.40
2023-01-12T22:02:50.447Z,3.20
2023-01-12T22:07:55.578Z,3.80
2023-01-12T22:13:00.631Z,4.00
2023-01-12T22:18:04.866Z,3.80
2023-01-12T22:23:11.242Z,3.50
2023-01-12T22:28:14.873Z,3.90
2023-01-12T22:33:18.176Z,4.00
2023-01-12T22:38:21.699Z,2.60
2023-01-12T22:43:27.881Z,4.30
2023-01-12T22:48:31.388Z,4.70
2023-01-12T22:53:36.024Z,3.80
2023-01-12T22:58:40.574Z,3.80
2023-01-12T23:03:44.294Z,4.30
2023-01-12T23:08:47.704Z,3.40
2023-01-12T23:13:52.946Z,3.40
2023-01-12T23:18:56.476Z,4.60
2023-01-12T23:24:00.925Z,4.50
2023-01-12T23:34:07.739Z,4.30
2023-01-12T23:39:12.559Z,3.90
2023-01-12T23:44:16.002Z,5.40
2023-01-12T23:49:19.618Z,2.90
2023-01-12T23:54:23.028Z,3.60
2023-01-12T23:59:26.850Z,3.30
